Time;durP1;ratioP1;P1;durP2;ratioP2;P2;SDS_P1;SDS_P2;PMS_P1;PMS_P2;Temp;Humidity;BMP_temperature;BMP_pressure;BME280_temperature;BME280_humidity;BME280_pressure;Samples;Min_cycle;Max_cycle;Signal;HPM_P1;HPM_P2
2022/01/22 00:00:59;;;;;;;9.70;3.97;;;;;;;3.34;100.00;103165.13;2107619;28;20016;-66
2022/01/22 00:01:59;;;;;;;9.05;4.15;;;;;;;3.33;100.00;103168.53;2107495;28;20387;-66
2022/01/22 00:03:01;;;;;;;8.93;3.90;;;;;;;3.33;100.00;103166.84;2107646;28;20032;-66
2022/01/22 00:04:02;;;;;;;8.55;4.53;;;;;;;3.33;100.00;103169.41;2107642;28;20036;-66
2022/01/22 00:05:04;;;;;;;8.57;3.97;;;;;;;3.32;100.00;103162.50;2107020;28;20540;-64
2022/01/22 00:06:05;;;;;;;5.18;3.70;;;;;;;3.32;100.00;103165.06;2106972;28;20020;-67
2022/01/22 00:07:06;;;;;;;9.10;4.40;;;;;;;3.33;100.00;103159.09;2107740;28;20020;-65
2022/01/22 00:08:08;;;;;;;12.50;4.43;;;;;;;3.32;100.00;103157.31;2108143;28;20027;-66
2022/01/22 00:09:08;;;;;;;10.43;4.68;;;;;;;3.34;100.00;103158.25;2108449;28;20035;-66
2022/01/22 00:10:19;;;;;;;7.37;4.50;;;;;;;3.33;100.00;103153.94;2109094;28;20080;-66
2022/01/22 00:11:19;;;;;;;6.82;4.00;;;;;;;3.34;100.00;103154.78;2108774;28;20300;-66
2022/01/22 00:13:08;;;;;;;10.07;5.07;;;;;;;3.34;100.00;103160.84;2108565;28;20020;-66
2022/01/22 00:15:07;;;;;;;8.23;4.18;;;;;;;3.34;100.00;103154.78;2107807;28;20024;-65
2022/01/22 00:16:07;;;;;;;10.80;4.68;;;;;;;3.33;100.00;103150.47;2107530;28;20473;-66
2022/01/22 00:17:07;;;;;;;10.20;4.80;;;;;;;3.32;100.00;103151.31;2107555;28;20040;-65
2022/01/22 00:18:08;;;;;;;8.13;4.53;;;;;;;3.32;100.00;103156.47;2107515;28;20269;-65
2022/01/22 00:19:10;;;;;;;11.32;5.28;;;;;;;3.31;100.00;103152.13;2107525;28;20053;-67
2022/01/22 00:20:11;;;;;;;7.70;3.90;;;;;;;3.32;100.00;103159.91;2107402;28;20103;-66
2022/01/22 00:21:11;;;;;;;11.13;5.10;;;;;;;3.32;100.00;103157.31;2106734;28;20026;-65
2022/01/22 00:22:12;;;;;;;8.57;4.17;;;;;;;3.32;100.00;103157.31;2106793;28;20039;-66
2022/01/22 00:23:15;;;;;;;7.55;4.30;;;;;;;3.32;100.00;103156.47;2107456;28;20028;-64
2022/01/22 00:24:16;;;;;;;9.68;4.60;;;;;;;3.31;100.00;103160.75;2106737;28;20027;-67
2022/01/22 00:25:18;;;;;;;13.90;5.28;;;;;;;3.29;100.00;103157.25;2106809;28;20405;-66
2022/01/22 00:26:18;;;;;;;13.48;4.38;;;;;;;3.30;100.00;103152.97;2107259;28;20346;-67
2022/01/22 00:27:18;;;;;;;6.20;4.47;;;;;;;3.29;100.00;103153.81;2106749;28;20031;-66
2022/01/22 00:28:19;;;;;;;10.73;4.57;;;;;;;3.29;100.00;103154.66;2098306;28;20024;-65
2022/01/22 00:29:19;;;;;;;6.30;4.17;;;;;;;3.29;100.00;103164.13;2106772;28;20028;-66
2022/01/22 00:30:23;;;;;;;5.60;3.43;;;;;;;3.28;100.00;103152.06;2107424;28;20477;-66
2022/01/22 00:31:23;;;;;;;8.77;4.22;;;;;;;3.28;100.00;103152.94;2107364;28;20085;-65
2022/01/22 00:32:23;;;;;;;6.60;3.83;;;;;;;3.29;100.00;103154.66;2107336;28;20055;-67
2022/01/22 00:33:24;;;;;;;6.83;3.70;;;;;;;3.30;100.00;103147.81;2107321;28;20081;-66
2022/01/22 00:34:24;;;;;;;6.33;3.80;;;;;;;3.29;100.00;103143.47;2107286;28;20465;-66
2022/01/22 00:35:24;;;;;;;11.77;4.70;;;;;;;3.28;100.00;103134.84;2106655;28;20016;-65
2022/01/22 00:36:25;;;;;;;5.83;3.93;;;;;;;3.30;100.00;103132.31;2106593;28;20024;-66
2022/01/22 00:37:25;;;;;;;11.93;3.10;;;;;;;3.31;100.00;103140.09;2106749;28;20026;-64
2022/01/22 00:38:25;;;;;;;8.73;4.13;;;;;;;3.33;100.00;103134.97;2106478;28;20040;-64
2022/01/22 00:39:26;;;;;;;6.33;4.23;;;;;;;3.33;100.00;103133.28;2107288;28;20028;-65
2022/01/22 00:40:26;;;;;;;7.70;3.90;;;;;;;3.31;100.00;103132.34;2107274;28;20126;-65
2022/01/22 00:41:27;;;;;;;7.32;4.28;;;;;;;3.30;100.00;103132.31;2107327;28;20390;-65
2022/01/22 00:42:27;;;;;;;5.33;3.53;;;;;;;3.30;100.00;103137.47;2107329;28;20473;-65
2022/01/22 00:43:27;;;;;;;9.67;4.37;;;;;;;3.30;100.00;103137.47;2107201;28;20085;-66
2022/01/22 00:44:28;;;;;;;7.97;4.20;;;;;;;3.29;100.00;103136.59;2107229;28;20055;-66
2022/01/22 00:45:28;;;;;;;9.23;4.70;;;;;;;3.28;100.00;103139.16;2107193;28;20051;-65
2022/01/22 00:46:29;;;;;;;6.27;4.07;;;;;;;3.27;100.00;103133.13;2107241;28;20020;-65
2022/01/22 00:47:29;;;;;;;6.13;4.00;;;;;;;3.28;100.00;103132.28;2107240;28;20020;-65
2022/01/22 00:48:29;;;;;;;6.67;3.80;;;;;;;3.29;100.00;103126.28;2107212;28;20101;-66
2022/01/22 00:49:31;;;;;;;8.73;4.47;;;;;;;3.29;100.00;103131.44;2107264;28;20024;-65
2022/01/22 00:50:31;;;;;;;10.43;4.22;;;;;;;3.28;100.00;103129.69;2106965;28;20024;-66
2022/01/22 00:51:31;;;;;;;11.57;4.07;;;;;;;3.29;100.00;103130.56;2107107;28;20447;-66
2022/01/22 00:52:31;;;;;;;9.47;4.30;;;;;;;3.27;100.00;103127.97;2107157;28;20029;-65
2022/01/22 00:53:32;;;;;;;10.53;4.37;;;;;;;3.28;100.00;103134.00;2107143;28;20035;-65
2022/01/22 00:54:32;;;;;;;10.50;3.93;;;;;;;3.27;100.00;103138.28;2107024;28;20048;-65
2022/01/22 00:55:33;;;;;;;7.63;4.40;;;;;;;3.27;100.00;103132.22;2106424;28;20032;-66
2022/01/22 00:56:33;;;;;;;9.20;4.10;;;;;;;3.26;100.00;103133.97;2097966;28;20363;-66
2022/01/22 00:57:33;;;;;;;8.07;4.13;;;;;;;3.26;100.00;103136.53;2097949;28;20115;-66
2022/01/22 00:58:33;;;;;;;8.77;4.57;;;;;;;3.27;100.00;103138.28;2097869;28;20028;-66
2022/01/22 00:59:34;;;;;;;6.83;3.63;;;;;;;3.28;100.00;103139.16;2106456;28;20032;-65
2022/01/22 01:00:35;;;;;;;9.20;4.78;;;;;;;3.29;100.00;103141.75;2107042;28;20020;-66
2022/01/22 01:01:35;;;;;;;9.57;4.55;;;;;;;3.29;100.00;103146.91;2106418;28;20016;-66
2022/01/22 01:02:36;;;;;;;11.10;4.60;;;;;;;3.30;100.00;103140.06;2106304;28;20020;-65
2022/01/22 01:03:37;;;;;;;9.20;4.85;;;;;;;3.29;100.00;103146.06;2107082;28;20093;-66
2022/01/22 01:04:37;;;;;;;9.43;4.60;;;;;;;3.28;100.00;103140.03;2107037;28;20065;-66
2022/01/22 01:05:38;;;;;;;15.75;4.88;;;;;;;3.29;100.00;103146.91;2107005;28;20028;-65
2022/01/22 01:06:39;;;;;;;10.10;4.83;;;;;;;3.29;100.00;103151.22;2106995;28;20477;-65
2022/01/22 01:07:40;;;;;;;6.07;3.53;;;;;;;3.29;100.00;103159.81;2106237;28;20088;-65
2022/01/22 01:08:40;;;;;;;13.20;4.60;;;;;;;3.29;100.00;103146.06;2106492;28;20051;-65
2022/01/22 01:09:41;;;;;;;10.80;4.90;;;;;;;3.29;100.00;103146.91;2107092;28;20322;-65
2022/01/22 01:10:41;;;;;;;13.33;4.53;;;;;;;3.30;100.00;103153.84;2107111;28;20035;-65
2022/01/22 01:11:47;;;;;;;10.97;4.83;;;;;;;3.30;100.00;103148.69;2107043;28;20294;-66
2022/01/22 01:12:48;;;;;;;10.80;4.97;;;;;;;3.32;100.00;103153.88;2106321;28;20024;-66
2022/01/22 01:13:55;;;;;;;;;;;;;;;3.32;100.00;103152.16;2106754;28;20455;-66
2022/01/22 01:15:12;;;;;;;9.55;4.28;;;;;;;3.32;100.00;103153.88;2107067;28;20284;-66
2022/01/22 01:16:20;;;;;;;7.55;4.82;;;;;;;3.33;100.00;103151.34;2107019;28;20429;-66
2022/01/22 01:17:46;;;;;;;7.22;4.50;;;;;;;3.34;100.00;103145.34;2106963;28;20058;-65
2022/01/22 01:32:14;;;;;;;11.93;5.32;;;;;;;3.39;100.00;103136.84;2106926;28;20028;-66
2022/01/22 01:33:45;;;;;;;10.73;4.85;;;;;;;3.39;100.00;103150.59;2106957;28;20390;-65
2022/01/22 01:34:40;;;;;;;13.20;5.55;;;;;;;3.38;100.00;103151.44;2106377;28;20036;-65
2022/01/22 01:35:41;;;;;;;8.25;4.63;;;;;;;3.38;100.00;103151.44;2106898;28;20026;-65
2022/01/22 01:36:42;;;;;;;6.72;5.07;;;;;;;3.39;100.00;103147.16;2106738;28;20036;-65
2022/01/22 01:37:43;;;;;;;6.40;5.15;;;;;;;3.39;100.00;103147.16;2106056;28;20028;-64
2022/01/22 01:38:50;;;;;;;9.23;5.40;;;;;;;3.38;100.00;103142.84;2106199;28;20461;-65
2022/01/22 01:39:54;;;;;;;11.00;5.63;;;;;;;3.39;100.00;103147.16;2106814;28;20485;-66
2022/01/22 01:41:04;;;;;;;8.77;6.15;;;;;;;3.37;100.00;103148.81;2106876;28;20427;-66
2022/01/22 01:42:16;;;;;;;10.57;5.85;;;;;;;3.37;100.00;103154.00;2106829;28;20374;-66
2022/01/22 01:43:24;;;;;;;15.52;5.90;;;;;;;3.37;100.00;103151.41;2106834;28;20031;-65
2022/01/22 01:44:25;;;;;;;12.13;6.10;;;;;;;3.35;100.00;103147.09;2106769;28;20020;-67
2022/01/22 01:45:26;;;;;;;9.35;6.07;;;;;;;3.37;100.00;103148.81;2106084;28;20046;-65
2022/01/22 01:46:30;;;;;;;11.55;5.70;;;;;;;3.37;100.00;103149.72;2106176;28;20028;-66
2022/01/22 01:47:30;;;;;;;10.18;5.40;;;;;;;3.37;100.00;103148.81;2106680;28;20173;-65
2022/01/22 01:48:37;;;;;;;10.90;6.23;;;;;;;3.35;100.00;103154.84;2106063;28;20020;-65
2022/01/22 01:49:37;;;;;;;12.75;5.40;;;;;;;3.35;100.00;103152.25;2106176;28;20499;-67
2022/01/22 01:50:40;;;;;;;9.23;5.57;;;;;;;3.35;100.00;103162.56;2106655;28;20039;-64
2022/01/22 01:51:41;;;;;;;10.90;6.88;;;;;;;3.34;100.00;103153.09;2106654;28;20118;-65
2022/01/22 01:52:49;;;;;;;11.38;5.53;;;;;;;3.35;100.00;103156.53;2106682;28;20035;-64
2022/01/22 01:54:06;;;;;;;10.90;6.43;;;;;;;3.34;100.00;103155.69;2106819;28;20338;-65
2022/01/22 01:55:35;;;;;;;9.82;5.60;;;;;;;3.34;100.00;103155.69;2106701;28;20378;-65
2022/01/22 01:57:48;;;;;;;6.18;4.45;;;;;;;3.34;100.00;103147.94;2088998;28;20040;-66
2022/01/22 01:58:49;;;;;;;12.43;6.00;;;;;;;3.35;100.00;103147.09;2102942;28;20070;-66
2022/01/22 01:59:51;;;;;;;16.00;6.97;;;;;;;3.34;100.00;103150.50;2106735;28;20639;-65
2022/01/22 02:00:52;;;;;;;10.13;6.63;;;;;;;3.35;100.00;103146.19;2106698;28;20107;-66
2022/01/22 02:01:52;;;;;;;13.97;5.97;;;;;;;3.34;100.00;103147.94;2105891;28;20431;-65
2022/01/22 02:02:53;;;;;;;8.37;6.07;;;;;;;3.34;100.00;103144.47;2097502;28;20027;-65
2022/01/22 02:03:54;;;;;;;;;;;;;;;3.35;100.00;103133.28;2106415;28;20016;-65
2022/01/22 02:04:54;;;;;;;6.53;4.43;;;;;;;3.34;100.00;103139.31;2106602;28;20358;-64
2022/01/22 02:05:54;;;;;;;11.00;5.87;;;;;;;3.32;100.00;103139.25;2106620;28;20020;-65
2022/01/22 02:06:56;;;;;;;9.07;5.80;;;;;;;3.33;100.00;103140.16;2106615;28;20027;-67
2022/01/22 02:07:56;;;;;;;;;;;;;;;3.34;100.00;103140.19;2107074;28;20551;-65
2022/01/22 02:08:56;;;;;;;8.82;5.15;;;;;;;3.34;100.00;103140.19;2106563;28;19965;-64
2022/01/22 02:09:59;;;;;;;10.77;6.40;;;;;;;3.34;100.00;103145.34;2106615;28;20032;-65
2022/01/22 02:11:01;;;;;;;12.65;6.45;;;;;;;3.34;100.00;103145.34;2106670;28;20039;-66
2022/01/22 02:12:09;;;;;;;11.27;6.30;;;;;;;3.34;100.00;103139.31;2106605;28;20040;-66
2022/01/22 02:23:50;;;;;;;8.95;6.03;;;;;;;3.33;100.00;103134.97;2106713;28;20036;-66
2022/01/22 02:24:52;;;;;;;12.20;6.65;;;;;;;3.30;100.00;103133.19;2106550;28;20020;-66
2022/01/22 02:25:56;;;;;;;8.88;6.38;;;;;;;3.31;100.00;103132.34;2106564;28;20031;-65
2022/01/22 02:26:56;;;;;;;10.52;6.95;;;;;;;3.29;100.00;103136.59;2106565;28;20099;-66
2022/01/22 02:27:59;;;;;;;12.00;6.90;;;;;;;3.30;100.00;103132.31;2105877;28;20046;-65
2022/01/22 02:28:59;;;;;;;9.73;6.93;;;;;;;3.28;100.00;103134.84;2105799;28;20071;-65
2022/01/22 02:30:00;;;;;;;13.98;7.25;;;;;;;3.30;100.00;103135.78;2097587;28;20020;-65
2022/01/22 02:31:11;;;;;;;10.35;7.50;;;;;;;3.32;100.00;103134.09;2105993;28;20020;-65
2022/01/22 02:34:51;;;;;;;13.13;7.07;;;;;;;3.35;100.00;103135.88;2106700;28;20032;-65
2022/01/22 02:36:03;;;;;;;11.82;7.55;;;;;;;3.35;100.00;103135.88;2106505;28;20020;-66
2022/01/22 02:37:11;;;;;;;9.20;6.47;;;;;;;3.35;100.00;103135.88;2105764;28;20550;-66
2022/01/22 02:38:17;;;;;;;11.10;5.97;;;;;;;3.35;100.00;103126.44;2105988;28;20531;-65
2022/01/22 02:39:22;;;;;;;10.15;7.68;;;;;;;3.34;100.00;103135.03;2105829;28;20115;-65
2022/01/22 02:40:42;;;;;;;9.88;6.68;;;;;;;3.34;100.00;103137.59;2105871;28;20345;-65
2022/01/22 02:41:46;;;;;;;10.68;7.40;;;;;;;3.29;100.00;103136.59;2106516;28;20377;-66
2022/01/22 02:42:47;;;;;;;17.38;9.23;;;;;;;3.27;100.00;103140.88;2105820;28;20023;-66
2022/01/22 02:43:47;;;;;;;13.40;9.07;;;;;;;3.26;100.00;103146.88;2105872;28;20122;-65
2022/01/22 02:44:48;;;;;;;15.40;9.77;;;;;;;3.25;100.00;103150.25;2105939;28;20157;-65
2022/01/22 02:45:49;;;;;;;15.73;8.57;;;;;;;3.23;100.00;103141.63;2106558;28;20056;-66
2022/01/22 02:46:50;;;;;;;12.63;8.57;;;;;;;3.23;100.00;103141.63;2106559;28;20018;-66
2022/01/22 02:47:51;;;;;;;15.57;8.70;;;;;;;3.21;100.00;103143.28;2106542;28;20016;-66
2022/01/22 02:48:56;;;;;;;9.38;7.40;;;;;;;3.20;100.00;103144.13;2106547;28;20504;-66
2022/01/22 02:49:56;;;;;;;13.13;8.60;;;;;;;3.22;100.00;103155.38;2106469;28;20020;-66
2022/01/22 02:50:57;;;;;;;13.83;8.67;;;;;;;3.21;100.00;103144.16;2106502;28;20389;-66
2022/01/22 02:51:59;;;;;;;13.47;9.13;;;;;;;3.22;100.00;103153.63;2105669;28;20500;-66
2022/01/22 02:53:05;;;;;;;12.02;7.65;;;;;;;3.24;100.00;103145.94;2105907;28;20385;-65
2022/01/22 02:54:05;;;;;;;13.23;8.50;;;;;;;3.24;100.00;103148.53;2105666;28;20133;-66
2022/01/22 02:55:07;;;;;;;14.67;9.73;;;;;;;3.25;100.00;103151.97;2097495;28;20017;-66
2022/01/22 02:56:08;;;;;;;13.10;9.02;;;;;;;3.24;100.00;103151.09;2105840;28;20024;-66
2022/01/22 02:57:09;;;;;;;13.20;9.13;;;;;;;3.23;100.00;103149.34;2106417;28;20342;-64
2022/01/22 02:58:10;;;;;;;12.40;8.75;;;;;;;3.24;100.00;103148.53;2106447;28;20044;-65
2022/01/22 02:59:10;;;;;;;14.60;9.20;;;;;;;3.22;100.00;103145.91;2106460;28;20115;-65
2022/01/22 03:00:22;;;;;;;13.80;9.33;;;;;;;3.24;100.00;103148.53;2106490;28;20028;-66
2022/01/22 03:01:23;;;;;;;13.98;9.13;;;;;;;3.24;100.00;103137.34;2106491;28;20027;-66
2022/01/22 03:02:23;;;;;;;;;;;;;;;3.24;100.00;103145.94;2106805;28;20016;-66
2022/01/22 03:03:23;;;;;;;11.73;8.77;;;;;;;3.22;100.00;103145.03;2106388;28;20280;-66
2022/01/22 03:04:24;;;;;;;8.73;7.37;;;;;;;3.25;100.00;103150.25;2105670;28;20203;-65
2022/01/22 03:05:24;;;;;;;12.57;8.20;;;;;;;3.27;100.00;103148.59;2105784;28;20056;-66
2022/01/22 03:06:24;;;;;;;17.33;9.77;;;;;;;3.29;100.00;103148.66;2105827;28;20023;-66
2022/01/22 03:07:25;;;;;;;10.73;6.93;;;;;;;3.30;100.00;103145.22;2106704;28;20028;-66
2022/01/22 03:08:28;;;;;;;15.47;9.50;;;;;;;3.30;100.00;103151.28;2106563;28;20028;-66
2022/01/22 03:09:31;;;;;;;14.32;9.48;;;;;;;3.29;100.00;103157.25;2105893;28;20039;-65
2022/01/22 03:10:32;;;;;;;15.35;9.60;;;;;;;3.30;100.00;103153.84;2105968;28;20089;-67
2022/01/22 03:11:46;;;;;;;11.37;8.43;;;;;;;3.30;100.00;103153.84;2106611;28;20043;-66
2022/01/22 03:13:09;;;;;;;14.30;9.80;;;;;;;3.33;100.00;103158.22;2106642;28;20025;-66
2022/01/22 03:17:12;;;;;;;13.23;9.40;;;;;;;3.32;100.00;103152.16;2106483;28;20048;-66
2022/01/22 03:18:19;;;;;;;13.18;8.98;;;;;;;3.30;100.00;103142.63;2106444;28;20028;-66
2022/01/22 03:19:54;;;;;;;10.77;7.88;;;;;;;3.29;100.00;103139.19;2106352;28;20024;-65
2022/01/22 03:22:02;;;;;;;13.27;7.55;;;;;;;3.30;100.00;103145.22;2106551;28;20034;-65
2022/01/22 03:28:09;;;;;;;16.55;9.15;;;;;;;3.29;100.00;103141.75;2106443;28;20063;-65
2022/01/22 03:29:14;;;;;;;15.15;9.98;;;;;;;3.28;100.00;103140.03;2105651;28;20035;-66
2022/01/22 03:30:15;;;;;;;13.05;9.68;;;;;;;3.29;100.00;103140.91;2105892;28;20210;-65
2022/01/22 03:31:16;;;;;;;12.55;10.35;;;;;;;3.29;100.00;103140.91;2106378;28;20036;-65
2022/01/22 03:32:18;;;;;;;15.63;10.03;;;;;;;3.30;100.00;103147.81;2107262;28;20359;-65
2022/01/22 03:33:21;;;;;;;14.45;9.07;;;;;;;3.30;100.00;103153.84;2107852;28;20028;-65
2022/01/22 03:34:22;;;;;;;15.95;10.13;;;;;;;3.30;100.00;103147.81;2107087;28;20055;-65
2022/01/22 03:36:24;;;;;;;16.70;10.38;;;;;;;3.31;100.00;103145.25;2107807;28;20028;-65
2022/01/22 03:37:26;;;;;;;16.58;10.95;;;;;;;3.31;100.00;103149.53;2107755;28;20023;-65
2022/01/22 03:38:26;;;;;;;18.70;11.30;;;;;;;3.29;100.00;103149.50;2107655;28;20024;-65
2022/01/22 03:39:27;;;;;;;20.77;10.57;;;;;;;3.30;100.00;103147.81;2107746;28;20185;-64
2022/01/22 03:40:29;;;;;;;14.00;10.90;;;;;;;3.31;100.00;103140.09;2107680;28;20038;-65
2022/01/22 03:41:29;;;;;;;15.50;10.52;;;;;;;3.32;100.00;103152.16;2107770;28;20027;-65
2022/01/22 03:42:29;;;;;;;18.30;10.97;;;;;;;3.32;100.00;103151.31;2107823;28;20154;-65
2022/01/22 03:43:30;;;;;;;15.37;10.03;;;;;;;3.33;100.00;103155.63;2107731;28;20032;-66
2022/01/22 03:44:30;;;;;;;13.37;10.00;;;;;;;3.33;100.00;103147.88;2107673;28;20081;-65
2022/01/22 03:45:30;;;;;;;15.70;10.90;;;;;;;3.33;100.00;103153.94;2107684;28;20032;-65
2022/01/22 03:46:31;;;;;;;16.20;10.20;;;;;;;3.33;100.00;103153.94;2107629;28;20426;-65
2022/01/22 03:47:31;;;;;;;14.43;10.20;;;;;;;3.32;100.00;103144.41;2106967;28;20405;-65
2022/01/22 03:48:32;;;;;;;16.80;11.63;;;;;;;3.33;100.00;103156.50;2107133;28;20024;-65
2022/01/22 03:49:32;;;;;;;16.27;10.45;;;;;;;3.33;100.00;103161.69;2107635;28;20035;-65
2022/01/22 03:50:33;;;;;;;18.70;11.70;;;;;;;3.32;100.00;103152.16;2107558;28;20081;-65
2022/01/22 03:51:33;;;;;;;20.70;11.93;;;;;;;3.33;100.00;103150.47;2107645;28;20282;-66
2022/01/22 03:52:33;;;;;;;16.63;11.40;;;;;;;3.32;100.00;103162.50;2107606;28;20362;-66
2022/01/22 03:53:34;;;;;;;20.27;11.07;;;;;;;3.34;100.00;103166.00;2107649;28;20036;-66
2022/01/22 03:54:34;;;;;;;18.13;11.80;;;;;;;3.32;100.00;103147.00;2107560;28;20050;-66
2022/01/22 03:56:02;;;;;;;19.00;11.35;;;;;;;3.32;100.00;103156.47;2107713;28;20039;-65
2022/01/22 03:57:03;;;;;;;18.17;11.02;;;;;;;3.34;100.00;103150.50;2106817;28;20385;-66
2022/01/22 03:58:03;;;;;;;16.67;10.50;;;;;;;3.36;100.00;103147.97;2107019;28;20032;-65
2022/01/22 03:59:03;;;;;;;17.83;11.57;;;;;;;3.35;100.00;103152.25;2106975;28;20239;-66
2022/01/22 04:00:06;;;;;;;17.43;12.33;;;;;;;3.34;100.00;103150.50;2107035;28;20032;-66
2022/01/22 04:03:34;;;;;;;16.65;12.25;;;;;;;3.38;100.00;103143.69;2107743;28;20054;-66
2022/01/22 04:04:41;;;;;;;19.50;12.25;;;;;;;3.39;100.00;103145.44;2106796;28;20031;-66
2022/01/22 04:05:59;;;;;;;16.55;10.35;;;;;;;3.39;100.00;103147.16;2106884;28;20069;-65
2022/01/22 04:08:19;;;;;;;22.52;13.10;;;;;;;3.42;100.00;103152.41;2107595;28;20051;-66
2022/01/22 04:09:21;;;;;;;20.70;12.52;;;;;;;3.41;100.00;103151.53;2106903;28;20036;-66
2022/01/22 04:10:23;;;;;;;19.27;12.15;;;;;;;3.41;100.00;103150.66;2098654;28;20071;-65
2022/01/22 04:11:24;;;;;;;18.02;11.88;;;;;;;3.42;100.00;103150.69;2106892;28;20035;-65
2022/01/22 04:12:38;;;;;;;18.60;11.38;;;;;;;3.41;100.00;103146.38;2107561;28;20529;-66
2022/01/22 04:13:39;;;;;;;21.83;12.80;;;;;;;3.42;100.00;103142.09;2107553;28;20069;-65
2022/01/22 04:14:47;;;;;;;25.77;14.67;;;;;;;3.43;100.00;103149.88;2106677;28;20101;-65
2022/01/22 04:15:48;;;;;;;21.33;12.93;;;;;;;3.44;100.00;103149.03;2106812;28;20097;-66
2022/01/22 04:17:04;;;;;;;19.02;13.00;;;;;;;3.43;100.00;103147.28;2107310;28;20529;-66
2022/01/22 04:24:50;;;;;;;20.40;13.48;;;;;;;3.46;100.00;103143.91;2107534;28;20044;-66
2022/01/22 04:26:03;;;;;;;21.60;12.52;;;;;;;3.46;100.00;103141.31;2107401;28;20024;-65
2022/01/22 04:27:10;;;;;;;21.67;13.48;;;;;;;3.46;100.00;103138.75;2107403;28;20020;-65
2022/01/22 04:28:12;;;;;;;24.92;13.43;;;;;;;3.46;100.00;103138.75;2107334;28;20030;-65
2022/01/22 04:29:12;;;;;;;23.60;12.75;;;;;;;3.46;100.00;103143.91;2107286;28;20039;-65
2022/01/22 04:30:13;;;;;;;19.07;13.77;;;;;;;3.46;100.00;103149.06;2107279;28;20529;-65
2022/01/22 04:31:13;;;;;;;21.60;14.33;;;;;;;3.47;100.00;103140.47;2107314;28;20047;-65
2022/01/22 04:32:14;;;;;;;18.93;13.23;;;;;;;3.47;100.00;103143.06;2107454;28;20035;-65
2022/01/22 04:33:15;;;;;;;21.13;13.55;;;;;;;3.48;100.00;103142.22;2107344;28;20044;-65
2022/01/22 04:34:15;;;;;;;22.57;14.67;;;;;;;3.49;100.00;103138.78;2107297;28;20031;-65
2022/01/22 04:35:17;;;;;;;21.75;15.35;;;;;;;3.48;100.00;103145.69;2107330;28;20052;-65
2022/01/22 04:36:17;;;;;;;20.10;13.63;;;;;;;3.49;100.00;103146.53;2107267;28;20374;-65
2022/01/22 04:37:18;;;;;;;21.97;12.10;;;;;;;3.48;100.00;103137.94;2106604;28;20100;-65
2022/01/22 04:38:19;;;;;;;24.13;14.98;;;;;;;3.48;100.00;103148.28;2106620;28;20024;-65
2022/01/22 04:39:21;;;;;;;19.60;13.43;;;;;;;3.48;100.00;103137.06;2107337;28;20110;-65
2022/01/22 04:40:22;;;;;;;23.33;15.25;;;;;;;3.49;100.00;103138.78;2106587;28;20186;-66
2022/01/22 04:41:22;;;;;;;25.25;14.57;;;;;;;3.52;100.00;103140.59;2098127;28;20017;-65
2022/01/22 04:42:24;;;;;;;24.50;16.07;;;;;;;3.52;100.00;103141.47;2106554;28;20028;-65
2022/01/22 04:43:24;;;;;;;23.70;16.27;;;;;;;3.52;100.00;103138.88;2114606;28;20036;-65
2022/01/22 04:44:28;;;;;;;23.60;15.83;;;;;;;3.52;100.00;103146.63;2107342;28;20083;-65
2022/01/22 04:45:45;;;;;;;24.33;16.08;;;;;;;3.51;100.00;103147.47;2107283;28;20055;-65
2022/01/22 04:47:30;;;;;;;22.33;14.00;;;;;;;3.53;100.00;103140.66;2107320;28;20020;-65
2022/01/22 04:54:58;;;;;;;26.17;14.48;;;;;;;3.58;100.00;103141.63;2107025;28;20040;-65
2022/01/22 04:55:59;;;;;;;21.83;14.10;;;;;;;3.59;100.00;103139.88;2107123;28;20024;-65
2022/01/22 04:56:59;;;;;;;24.37;15.57;;;;;;;3.58;100.00;103149.38;2107126;28;20028;-65
2022/01/22 04:58:03;;;;;;;23.00;14.07;;;;;;;3.58;100.00;103143.31;2107147;28;20493;-65
2022/01/22 04:59:03;;;;;;;27.77;17.17;;;;;;;3.57;100.00;103142.47;2107170;28;20474;-66
2022/01/22 05:00:07;;;;;;;21.60;14.77;;;;;;;3.58;100.00;103143.31;2107167;28;20028;-64
2022/01/22 05:01:08;;;;;;;22.38;15.00;;;;;;;3.58;100.00;103149.38;2107111;28;20036;-66
2022/01/22 05:02:08;;;;;;;19.90;13.13;;;;;;;3.58;100.00;103149.38;2107031;28;20020;-66
2022/01/22 05:03:09;;;;;;;20.27;12.03;;;;;;;3.58;100.00;103144.19;2107052;28;20461;-66
2022/01/22 05:04:09;;;;;;;20.92;15.30;;;;;;;3.59;100.00;103147.63;2106477;28;20027;-66
2022/01/22 05:05:10;;;;;;;21.77;14.97;;;;;;;3.58;100.00;103141.63;2106523;28;20032;-66
2022/01/22 05:06:10;;;;;;;23.50;15.45;;;;;;;3.58;100.00;103136.47;2107023;28;20419;-66
2022/01/22 05:07:10;;;;;;;27.37;15.13;;;;;;;3.59;100.00;103143.34;2106446;28;20107;-66
2022/01/22 05:08:11;;;;;;;21.60;14.27;;;;;;;3.62;100.00;103144.28;2106459;28;20077;-65
2022/01/22 05:09:11;;;;;;;23.33;15.13;;;;;;;3.62;100.00;103139.97;2106563;28;20485;-66
2022/01/22 05:10:11;;;;;;;27.90;16.50;;;;;;;3.62;100.00;103137.38;2107062;28;20147;-65
2022/01/22 05:11:12;;;;;;;25.97;17.07;;;;;;;3.63;100.00;103138.28;2107124;28;20389;-67
2022/01/22 05:12:12;;;;;;;31.23;18.13;;;;;;;3.62;100.00;103141.69;2107182;28;20028;-65
2022/01/22 05:13:12;;;;;;;23.17;15.57;;;;;;;3.63;100.00;103143.44;2107127;28;20505;-66
2022/01/22 05:14:13;;;;;;;22.23;14.73;;;;;;;3.66;100.00;103138.34;2107067;28;20366;-65
2022/01/22 05:15:14;;;;;;;19.97;13.77;;;;;;;3.69;100.00;103140.97;2107076;28;20393;-65
2022/01/22 05:16:15;;;;;;;19.42;13.63;;;;;;;3.69;100.00;103135.81;2107117;28;20026;-66
2022/01/22 05:17:18;;;;;;;23.77;16.17;;;;;;;3.68;100.00;103134.06;2107070;28;20020;-65
2022/01/22 05:18:18;;;;;;;25.40;14.70;;;;;;;3.68;100.00;103134.97;2106239;28;20090;-66
2022/01/22 05:19:25;;;;;;;29.93;16.53;;;;;;;3.68;100.00;103134.06;2106356;28;20039;-65
2022/01/22 05:20:34;;;;;;;19.05;13.57;;;;;;;3.70;100.00;103135.00;2106956;28;20054;-66
2022/01/22 05:21:36;;;;;;;18.17;13.48;;;;;;;3.72;100.00;103134.19;2106992;28;20086;-66
2022/01/22 05:23:47;;;;;;;20.02;13.40;;;;;;;3.74;100.00;103140.25;2107069;28;20031;-66
2022/01/22 05:24:52;;;;;;;;;;;;;;;3.77;100.00;103144.66;2107268;28;20420;-66
2022/01/22 05:25:57;;;;;;;22.88;12.05;;;;;;;3.76;100.00;103137.72;2106182;28;20384;-66
2022/01/22 05:32:05;;;;;;;23.40;13.73;;;;;;;3.76;100.00;103132.53;2106950;28;20048;-65
2022/01/22 05:37:52;;;;;;;25.35;14.10;;;;;;;3.75;100.00;103133.38;2106777;28;20481;-65
2022/01/22 05:38:53;;;;;;;24.03;16.33;;;;;;;3.75;100.00;103130.81;2106823;28;20016;-65
2022/01/22 05:39:53;;;;;;;17.80;12.50;;;;;;;3.74;100.00;103132.50;2106847;28;20026;-65
2022/01/22 05:40:53;;;;;;;23.20;14.57;;;;;;;3.75;100.00;103130.81;2106151;28;20111;-65
2022/01/22 05:41:55;;;;;;;23.70;14.63;;;;;;;3.77;100.00;103136.00;2106152;28;20019;-66
2022/01/22 05:42:55;;;;;;;;;;;;;;;3.79;100.00;103140.38;2107182;28;20024;-66
2022/01/22 05:43:55;;;;;;;22.80;14.60;;;;;;;3.79;100.00;103139.47;2106756;28;20003;-66
2022/01/22 05:44:56;;;;;;;28.47;16.07;;;;;;;3.79;100.00;103142.94;2106723;28;20362;-65
2022/01/22 05:45:56;;;;;;;22.57;14.83;;;;;;;3.77;100.00;103133.44;2106801;28;20444;-66
2022/01/22 05:46:59;;;;;;;21.97;13.77;;;;;;;3.79;100.00;103142.06;2106841;28;20016;-66
2022/01/22 05:47:59;;;;;;;24.70;16.33;;;;;;;3.76;100.00;103137.72;2106802;28;20031;-66
2022/01/22 05:48:59;;;;;;;24.80;14.87;;;;;;;3.78;100.00;103141.22;2106755;28;20127;-65
2022/01/22 05:50:04;;;;;;;24.90;15.00;;;;;;;3.76;100.00;103132.53;2106727;28;20047;-66
2022/01/22 05:51:06;;;;;;;26.90;17.58;;;;;;;3.76;100.00;103132.53;2106731;28;20028;-65
2022/01/22 05:52:09;;;;;;;23.00;14.68;;;;;;;3.77;100.00;103134.31;2106806;28;20043;-66
2022/01/22 05:53:20;;;;;;;25.77;14.98;;;;;;;3.78;100.00;103141.22;2106697;28;20030;-65
2022/01/22 06:00:28;;;;;;;26.95;15.18;;;;;;;3.82;100.00;103136.97;2106879;28;20505;-65
2022/01/22 06:01:29;;;;;;;26.67;15.83;;;;;;;3.82;100.00;103136.97;2106659;28;20024;-65
2022/01/22 06:02:29;;;;;;;22.90;14.00;;;;;;;3.83;100.00;103137.00;2105989;28;20077;-65
2022/01/22 06:03:29;;;;;;;29.07;15.83;;;;;;;3.83;100.00;103144.78;2106083;28;20032;-65